createdAt,value
2022-09-11T00:04:47.288Z,16
2022-09-11T00:06:44.922Z,16.1
2022-09-11T00:10:40.226Z,16
2022-09-11T00:14:35.438Z,16.1
2022-09-11T00:16:33.134Z,16
2022-09-11T00:18:38.627Z,16
2022-09-11T00:20:36.263Z,15.9
2022-09-11T00:22:33.904Z,16
2022-09-11T00:26:29.172Z,15.9
2022-09-11T00:28:26.831Z,15.9
2022-09-11T00:30:24.476Z,15.9
2022-09-11T00:34:27.654Z,15.8
2022-09-11T00:36:25.298Z,15.7
2022-09-11T00:37:28.070Z,15.8
2022-09-11T00:39:25.712Z,15.8
2022-09-11T00:41:23.366Z,15.9
2022-09-11T00:43:20.995Z,15.9
2022-09-11T00:45:26.868Z,15.8
2022-09-11T00:47:24.188Z,16
2022-09-11T00:51:19.473Z,15.8
2022-09-11T00:53:17.075Z,15.8
2022-09-11T00:55:14.721Z,15.8
2022-09-11T00:57:12.337Z,15.8
2022-09-11T00:59:17.871Z,15.8
2022-09-11T01:01:15.572Z,15.7
2022-09-11T01:03:13.151Z,15.8
2022-09-11T01:05:10.925Z,15.7
2022-09-11T01:07:08.420Z,15.6
2022-09-11T01:11:05.227Z,15.7
2022-09-11T01:15:08.378Z,15.6
2022-09-11T01:19:03.635Z,15.6
2022-09-11T01:21:01.277Z,15.6
2022-09-11T01:22:58.866Z,15.6
2022-09-11T01:24:56.516Z,15.7
2022-09-11T01:28:59.750Z,15.6
2022-09-11T01:30:57.352Z,15.5
2022-09-11T01:32:00.158Z,15.6
2022-09-11T01:33:57.780Z,15.6
2022-09-11T01:35:55.402Z,15.5
2022-09-11T01:39:58.651Z,15.4
2022-09-11T01:43:53.876Z,15.4
2022-09-11T01:49:46.789Z,15.5
2022-09-11T01:51:44.438Z,15.6
2022-09-11T01:53:50.564Z,15.3
2022-09-11T01:55:47.654Z,15.3
2022-09-11T01:57:45.320Z,15.3
2022-09-11T01:59:42.935Z,15.4
2022-09-11T02:01:40.647Z,15.4
2022-09-11T02:05:35.837Z,15.4
2022-09-11T02:11:36.686Z,15.6
2022-09-11T02:13:34.321Z,15.4
2022-09-11T02:17:29.631Z,15.5
2022-09-11T02:23:30.458Z,15.3
2022-09-11T02:25:28.099Z,15.3
2022-09-11T02:31:46.809Z,15.3
2022-09-11T02:39:45.299Z,15.4
2022-09-11T02:41:42.941Z,15.4
2022-09-11T02:43:40.602Z,15.5
2022-09-11T02:45:38.255Z,15.5
2022-09-11T02:47:43.770Z,15.4
2022-09-11T02:49:41.388Z,15.5
2022-09-11T02:51:39.026Z,15.5
2022-09-11T02:53:36.668Z,15.4
2022-09-11T02:55:34.344Z,15.4
2022-09-11T02:57:31.932Z,15.3
2022-09-11T02:59:29.591Z,15.4
2022-09-11T03:01:35.137Z,15.3
2022-09-11T03:03:32.783Z,15.4
2022-09-11T03:05:30.426Z,15.2
2022-09-11T03:07:28.033Z,15.3
2022-09-11T03:11:23.286Z,15.3
2022-09-11T03:13:20.927Z,15.3
2022-09-11T03:15:26.515Z,15.1
2022-09-11T03:17:24.157Z,15.3
2022-09-11T03:20:24.589Z,15.3
2022-09-11T03:22:22.201Z,15.3
2022-09-11T03:24:19.846Z,15.2
2022-09-11T03:26:17.454Z,15.2
2022-09-11T03:28:23.041Z,15.2
2022-09-11T03:30:20.676Z,15.2
2022-09-11T03:32:18.322Z,15.2
2022-09-11T03:36:13.601Z,15.1
2022-09-11T03:38:11.228Z,15
2022-09-11T03:40:08.881Z,15.1
2022-09-11T03:42:14.429Z,15.1
2022-09-11T03:46:09.699Z,15.2
2022-09-11T03:48:07.356Z,15.1
2022-09-11T03:50:04.977Z,15.1
2022-09-11T03:54:00.225Z,15.2
2022-09-11T03:56:05.797Z,15.2
2022-09-11T03:58:03.479Z,15.1
2022-09-11T04:00:01.082Z,15.2
2022-09-11T04:01:58.740Z,15.1
2022-09-11T04:03:56.342Z,15.1
2022-09-11T04:05:53.985Z,15.1
2022-09-11T04:07:51.646Z,15.1
2022-09-11T04:09:57.201Z,15
2022-09-11T04:11:54.833Z,15
2022-09-11T04:13:52.454Z,15
2022-09-11T04:16:52.885Z,15
2022-09-11T04:18:50.512Z,15.1
2022-09-11T04:20:48.147Z,15
2022-09-11T04:22:53.713Z,15
2022-09-11T04:24:51.343Z,14.9
2022-09-11T04:26:48.963Z,15
2022-09-11T04:28:46.593Z,14.9
2022-09-11T04:30:44.240Z,14.9
2022-09-11T04:32:41.842Z,14.8
2022-09-11T04:38:42.702Z,14.7
2022-09-11T04:44:35.626Z,14.5
2022-09-11T04:46:33.273Z,14.6
2022-09-11T04:48:30.894Z,14.4
2022-09-11T04:50:36.438Z,14.4
2022-09-11T04:52:34.102Z,14.4
2022-09-11T04:56:29.365Z,14.4
2022-09-11T05:00:24.645Z,14.4
2022-09-11T05:02:22.284Z,14.4
2022-09-11T05:06:25.515Z,14.3
2022-09-11T05:08:23.133Z,14.2
2022-09-11T05:11:23.765Z,14.4
2022-09-11T05:13:21.202Z,14.4
2022-09-11T05:15:18.871Z,14.3
2022-09-11T05:19:22.064Z,14.2
2022-09-11T05:21:19.687Z,14.3
2022-09-11T05:23:17.324Z,14.1
2022-09-11T05:25:15.172Z,14.2
2022-09-11T05:27:12.604Z,14.2
2022-09-11T05:29:10.244Z,14.2
2022-09-11T05:31:15.830Z,14.2
2022-09-11T05:33:13.435Z,14.4
2022-09-11T05:35:11.076Z,14.4
2022-09-11T05:37:08.714Z,14.4
2022-09-11T05:39:06.364Z,14.6
2022-09-11T05:41:03.975Z,14.6
2022-09-11T05:43:01.647Z,14.4
2022-09-11T05:45:07.202Z,14.4
2022-09-11T05:49:02.475Z,14.5
2022-09-11T05:51:00.137Z,14.6
2022-09-11T05:52:57.768Z,14.6
2022-09-11T05:54:55.436Z,14.6
2022-09-11T05:56:53.040Z,14.6
2022-09-11T05:58:58.636Z,14.6
2022-09-11T06:00:56.317Z,14.6
2022-09-11T06:02:53.916Z,14.6
2022-09-11T06:05:20.935Z,14.6
2022-09-11T06:07:18.583Z,14.6
2022-09-11T06:11:21.926Z,14.7
2022-09-11T06:13:19.440Z,14.6
2022-09-11T06:17:14.694Z,14.8
2022-09-11T06:19:12.347Z,14.7
2022-09-11T06:21:09.994Z,14.8
2022-09-11T06:23:09.329Z,14.9
2022-09-11T06:25:13.176Z,15
2022-09-11T06:27:10.806Z,15.1
2022-09-11T06:29:08.447Z,15
2022-09-11T06:31:06.195Z,15.2
2022-09-11T06:33:03.735Z,15.1
2022-09-11T06:35:01.373Z,15.2
2022-09-11T06:36:58.974Z,15.3
2022-09-11T06:39:04.553Z,15.3
2022-09-11T06:41:02.175Z,15.3
2022-09-11T06:42:59.825Z,15.4
2022-09-11T06:46:55.226Z,15.4
2022-09-11T06:48:52.728Z,15.5
2022-09-11T06:50:50.874Z,15.5
2022-09-11T06:52:57.992Z,15.7
2022-09-11T06:54:55.640Z,15.7
2022-09-11T06:56:53.246Z,15.8
2022-09-11T07:01:51.364Z,15.9
2022-09-11T07:03:48.959Z,16
2022-09-11T07:05:54.523Z,16
2022-09-11T07:07:52.183Z,16.2
2022-09-11T07:09:49.808Z,16.2
2022-09-11T07:13:45.211Z,16.3
2022-09-11T07:15:42.731Z,16.5
2022-09-11T07:17:40.367Z,16.6
2022-09-11T07:21:43.535Z,16.8
2022-09-11T07:23:41.316Z,16.9
2022-09-11T07:25:38.777Z,16.9
2022-09-11T07:27:36.439Z,17
2022-09-11T07:29:34.049Z,17.1
2022-09-11T07:31:31.680Z,17.1
2022-09-11T07:33:37.252Z,17.3
2022-09-11T07:35:34.885Z,17.3
2022-09-11T07:37:32.482Z,17.4
2022-09-11T07:39:30.112Z,17.4
2022-09-11T07:41:27.750Z,17.5
2022-09-11T07:43:25.370Z,17.5
2022-09-11T07:45:23.075Z,17.6
2022-09-11T07:47:28.551Z,17.7
2022-09-11T07:51:23.799Z,17.7
2022-09-11T07:56:21.854Z,17.8
2022-09-11T07:58:19.453Z,18
2022-09-11T08:04:20.245Z,18.1
2022-09-11T08:06:21.371Z,18.1
2022-09-11T08:08:15.496Z,18.2
2022-09-11T08:10:26.213Z,18.4
2022-09-11T08:12:10.741Z,18.3
2022-09-11T08:14:16.324Z,18.4
2022-09-11T08:16:13.932Z,18.4
2022-09-11T08:18:11.516Z,18.4
2022-09-11T08:20:09.135Z,18.5
2022-09-11T08:26:01.984Z,18.8
2022-09-11T08:28:07.538Z,18.7
2022-09-11T08:30:05.156Z,19
2022-09-11T08:32:02.730Z,18.9
2022-09-11T08:34:00.348Z,19.1
2022-09-11T08:35:57.916Z,19.1
2022-09-11T08:37:55.517Z,19.1
2022-09-11T08:39:53.390Z,19
2022-09-11T08:41:58.651Z,19
2022-09-11T08:45:53.851Z,18.9
2022-09-11T08:48:54.164Z,19
2022-09-11T08:50:51.783Z,18.9
2022-09-11T08:52:49.321Z,19
2022-09-11T08:54:54.848Z,18.9
2022-09-11T08:56:52.436Z,18.8
2022-09-11T08:58:50.043Z,18.9
2022-09-11T09:00:47.600Z,18.9
2022-09-11T09:02:45.190Z,19
2022-09-11T09:04:42.763Z,19
2022-09-11T09:06:40.364Z,19.1
2022-09-11T09:08:45.884Z,19.2
2022-09-11T09:10:43.446Z,19.1
2022-09-11T09:12:41.044Z,19.1
2022-09-11T09:14:38.623Z,19.1
2022-09-11T09:18:33.802Z,19.4
2022-09-11T09:20:31.393Z,19.6
2022-09-11T09:22:36.905Z,19.7
2022-09-11T09:24:34.499Z,19.8
2022-09-11T09:26:35.319Z,20
2022-09-11T09:28:29.636Z,20
2022-09-11T09:30:27.238Z,20.2
2022-09-11T09:32:24.827Z,20.2
2022-09-11T09:34:22.385Z,20.4
2022-09-11T09:36:27.905Z,20.5
2022-09-11T09:38:27.163Z,20.7
2022-09-11T09:40:23.038Z,20.8
2022-09-11T09:42:45.923Z,20.8
2022-09-11T09:44:43.479Z,20.7
2022-09-11T09:46:41.016Z,20.8
2022-09-11T09:48:46.585Z,20.4
2022-09-11T09:50:44.103Z,20.3
2022-09-11T09:52:41.662Z,20.1
2022-09-11T09:54:39.303Z,20
2022-09-11T09:56:36.843Z,20
2022-09-11T09:58:34.501Z,20.1
2022-09-11T10:00:31.940Z,20
2022-09-11T10:02:37.520Z,20.1
2022-09-11T10:04:35.032Z,20.2
2022-09-11T10:06:32.612Z,20.2
2022-09-11T10:08:30.182Z,20.3
2022-09-11T10:10:27.714Z,20.5
2022-09-11T10:16:28.338Z,20.7
2022-09-11T10:18:25.903Z,20.8
2022-09-11T10:20:23.456Z,20.8
2022-09-11T10:22:21.016Z,21.1
2022-09-11T10:24:18.572Z,21.3
2022-09-11T10:26:16.132Z,21.1
2022-09-11T10:28:13.689Z,21.4
2022-09-11T10:30:19.216Z,21.5
2022-09-11T10:34:14.288Z,21.8
2022-09-11T10:35:17.057Z,21.7
2022-09-11T10:41:09.702Z,22
2022-09-11T10:43:15.218Z,22.3
2022-09-11T10:47:10.298Z,22.7
2022-09-11T10:49:07.971Z,22.7
2022-09-11T10:51:05.366Z,22.7
2022-09-11T10:53:02.857Z,22.5
2022-09-11T10:55:00.369Z,22.2
2022-09-11T10:59:03.370Z,22.4
2022-09-11T11:01:00.903Z,23.1
2022-09-11T11:02:58.414Z,23.6
2022-09-11T11:04:56.073Z,24
2022-09-11T11:06:53.440Z,24
2022-09-11T11:08:50.979Z,23.4
2022-09-11T11:10:56.446Z,23
2022-09-11T11:12:53.929Z,23.2
2022-09-11T11:14:51.539Z,23.1
2022-09-11T11:16:48.909Z,22.8
2022-09-11T11:18:46.388Z,22.8
2022-09-11T11:22:41.524Z,22.6
2022-09-11T11:28:41.917Z,22.2
2022-09-11T11:29:44.544Z,22.1
2022-09-11T11:31:44.378Z,22.1
2022-09-11T11:33:39.511Z,22
2022-09-11T11:35:37.155Z,22
2022-09-11T11:37:42.494Z,21.9
2022-09-11T11:39:40.027Z,22.1
2022-09-11T11:41:37.485Z,21.9
2022-09-11T11:43:34.973Z,21.9
2022-09-11T11:45:32.570Z,22
2022-09-11T11:47:29.945Z,21.9
2022-09-11T11:55:27.910Z,21.8
2022-09-11T11:57:25.413Z,21.9
2022-09-11T11:59:22.910Z,21.9
2022-09-11T12:01:20.404Z,22
2022-09-11T12:03:18.005Z,22
2022-09-11T12:05:23.400Z,22
2022-09-11T12:07:20.920Z,22
2022-09-11T12:09:18.390Z,22
2022-09-11T12:17:08.375Z,22.2
2022-09-11T12:21:11.353Z,22.7
2022-09-11T12:23:08.872Z,23.3
2022-09-11T12:24:11.596Z,24
2022-09-11T12:26:09.072Z,24
2022-09-11T12:28:06.571Z,24.5
2022-09-11T12:30:04.074Z,24.7
2022-09-11T12:32:11.172Z,25.4
2022-09-11T12:34:08.458Z,25.6
2022-09-11T12:36:05.897Z,26.1
2022-09-11T12:38:03.285Z,25.9
2022-09-11T12:41:58.101Z,25.4
2022-09-11T12:43:55.477Z,25.2
2022-09-11T12:46:00.918Z,23.8
2022-09-11T12:47:58.238Z,23.5
2022-09-11T12:49:55.635Z,23.3
2022-09-11T12:51:52.995Z,23.4
2022-09-11T12:53:50.408Z,23.1
2022-09-11T12:55:47.778Z,23
2022-09-11T12:57:45.208Z,23
2022-09-11T12:59:50.582Z,23
2022-09-11T13:01:48.212Z,23
2022-09-11T13:03:45.435Z,23.1
2022-09-11T13:05:42.843Z,23
2022-09-11T13:07:40.261Z,22.9
2022-09-11T13:09:37.713Z,23
2022-09-11T13:15:38.066Z,23.1
2022-09-11T13:17:35.484Z,23.3
2022-09-11T13:20:02.315Z,25.3
2022-09-11T13:21:59.680Z,25.7
2022-09-11T13:23:57.123Z,26.5
2022-09-11T13:26:02.552Z,27.5
2022-09-11T13:27:59.976Z,27.7
2022-09-11T13:29:57.343Z,27.7
2022-09-11T13:31:54.705Z,28
2022-09-11T13:33:52.058Z,27.4
2022-09-11T13:35:49.413Z,28.2
2022-09-11T13:37:46.734Z,29.3
2022-09-11T13:41:49.382Z,30.1
2022-09-11T13:43:46.653Z,30.4
2022-09-11T13:45:43.959Z,30.8
2022-09-11T13:47:41.191Z,30.9
2022-09-11T13:49:38.470Z,31.2
2022-09-11T13:51:35.682Z,31.7
2022-09-11T13:55:38.155Z,32.2
2022-09-11T13:57:35.341Z,32.7
2022-09-11T13:59:32.497Z,33.2
2022-09-11T14:03:26.822Z,33.2
2022-09-11T14:05:23.967Z,33.2
2022-09-11T14:07:29.166Z,33
2022-09-11T14:14:23.062Z,33.4
2022-09-11T14:16:20.230Z,34.1
2022-09-11T14:18:17.230Z,34.3
2022-09-11T14:20:22.365Z,35.1
2022-09-11T14:22:19.413Z,35
2022-09-11T14:26:13.508Z,34.2
2022-09-11T14:28:10.524Z,33.1
2022-09-11T14:30:07.582Z,32.2
2022-09-11T14:32:04.598Z,31.8
2022-09-11T14:34:09.737Z,29.4
2022-09-11T14:36:07.930Z,28.7
2022-09-11T14:38:03.884Z,27.8
2022-09-11T14:40:01.032Z,27.1
2022-09-11T14:47:57.692Z,25.8
2022-09-11T14:53:49.350Z,25.4
2022-09-11T14:55:46.638Z,25.4
2022-09-11T14:57:43.902Z,25.4
2022-09-11T14:59:41.336Z,25.4
2022-09-11T15:01:46.707Z,25.2
2022-09-11T15:03:44.196Z,25.1
2022-09-11T15:05:41.345Z,25.1
2022-09-11T15:06:44.020Z,25.1
2022-09-11T15:10:38.758Z,24.8
2022-09-11T15:12:36.129Z,24.9
2022-09-11T15:14:55.700Z,25.1
2022-09-11T15:16:38.878Z,24.8
2022-09-11T15:18:36.291Z,24.8
2022-09-11T15:20:33.691Z,24.7
2022-09-11T15:22:31.228Z,24.8
2022-09-11T15:24:28.564Z,25
2022-09-11T15:26:25.992Z,24.8
2022-09-11T15:28:31.427Z,24.6
2022-09-11T15:30:28.861Z,24.4
2022-09-11T15:32:26.324Z,24.6
2022-09-11T15:34:23.744Z,24.7
2022-09-11T15:36:21.268Z,24.7
2022-09-11T15:38:18.649Z,24.7
2022-09-11T15:40:16.147Z,24.4
2022-09-11T15:42:21.502Z,24.7
2022-09-11T15:44:18.954Z,24.7
2022-09-11T15:50:11.315Z,24.3
2022-09-11T15:52:08.769Z,24.4
2022-09-11T15:56:11.713Z,24.3
2022-09-11T15:58:09.187Z,24.2
2022-09-11T16:00:06.654Z,24
2022-09-11T16:01:09.428Z,24.2
2022-09-11T16:03:06.834Z,24.3
2022-09-11T16:05:04.293Z,24.3
2022-09-11T16:07:01.749Z,24.1
2022-09-11T16:09:07.199Z,24.2
2022-09-11T16:13:02.134Z,24.3
2022-09-11T16:14:59.590Z,24.2
2022-09-11T16:16:57.055Z,24.1
2022-09-11T16:18:54.538Z,23.9
2022-09-11T16:20:52.019Z,23.9
2022-09-11T16:22:57.487Z,23.7
2022-09-11T16:24:54.984Z,23.8
2022-09-11T16:26:52.468Z,23.6
2022-09-11T16:28:49.940Z,23.6
2022-09-11T16:32:44.909Z,23.4
2022-09-11T16:34:42.393Z,23.4
2022-09-11T16:36:47.870Z,23.4
2022-09-11T16:38:45.368Z,23.4
2022-09-11T16:40:42.899Z,23.4
2022-09-11T16:42:40.363Z,23.2
2022-09-11T16:44:37.878Z,23.2
2022-09-11T16:46:35.390Z,23.2
2022-09-11T16:48:32.899Z,23
2022-09-11T16:50:38.413Z,22.9
2022-09-11T16:54:33.416Z,22.9
2022-09-11T16:56:54.366Z,22.8
2022-09-11T16:58:51.890Z,22.8
2022-09-11T17:00:49.571Z,22.8
2022-09-11T17:02:54.876Z,22.9
2022-09-11T17:04:52.227Z,22.8
2022-09-11T17:06:49.763Z,23
2022-09-11T17:08:49.896Z,22.8
2022-09-11T17:12:42.369Z,22.6
2022-09-11T17:14:39.875Z,22.6
2022-09-11T17:16:45.352Z,22.4
2022-09-11T17:22:38.640Z,22.4
2022-09-11T17:24:36.157Z,22.4
2022-09-11T17:26:33.705Z,22.3
2022-09-11T17:28:31.239Z,22.2
2022-09-11T17:30:36.731Z,22.3
2022-09-11T17:32:34.232Z,22.3
2022-09-11T17:34:31.784Z,22.3
2022-09-11T17:36:29.333Z,22.3
2022-09-11T17:38:26.861Z,22.4
2022-09-11T17:40:24.378Z,22.3
2022-09-11T17:42:21.930Z,22.3
2022-09-11T17:44:27.429Z,22.1
2022-09-11T17:46:25.129Z,22.2
2022-09-11T17:48:22.577Z,22.1
2022-09-11T17:49:25.299Z,22
2022-09-11T17:51:22.856Z,21.9
2022-09-11T17:53:20.384Z,22
2022-09-11T17:55:17.967Z,21.8
2022-09-11T17:57:23.475Z,21.8
2022-09-11T18:01:18.618Z,21.9
2022-09-11T18:05:13.678Z,21.9
2022-09-11T18:07:11.249Z,21.6
2022-09-11T18:09:08.795Z,21.7
2022-09-11T18:15:11.098Z,21.5
2022-09-11T18:17:08.512Z,21.5
2022-09-11T18:29:01.888Z,21.4
2022-09-11T18:30:59.664Z,21.3
2022-09-11T18:34:54.603Z,21.1
2022-09-11T18:38:57.697Z,21
2022-09-11T18:45:53.151Z,21
2022-09-11T18:47:50.724Z,20.8
2022-09-11T18:49:48.319Z,20.9
2022-09-11T18:53:51.442Z,20.9
2022-09-11T18:55:48.980Z,20.8
2022-09-11T18:57:49.063Z,20.6
2022-09-11T18:59:44.131Z,20.5
2022-09-11T19:01:41.857Z,20.5
2022-09-11T19:03:39.317Z,20.6
2022-09-11T19:05:44.840Z,20.4
2022-09-11T19:07:42.412Z,20.4
2022-09-11T19:11:37.544Z,20.4
2022-09-11T19:13:35.144Z,20.4
2022-09-11T19:15:32.733Z,20.3
2022-09-11T19:17:30.292Z,20.3
2022-09-11T19:19:35.800Z,20.3
2022-09-11T19:23:30.969Z,20.3
2022-09-11T19:25:28.544Z,20.3
2022-09-11T19:29:23.686Z,20.1
2022-09-11T19:31:21.435Z,20.1
2022-09-11T19:33:26.795Z,20
2022-09-11T19:35:24.407Z,20
2022-09-11T19:37:21.979Z,19.8
2022-09-11T19:38:24.741Z,19.9
2022-09-11T19:40:22.346Z,19.7
2022-09-11T19:44:17.547Z,19.6
2022-09-11T19:46:23.134Z,19.6
2022-09-11T19:48:20.667Z,19.4
2022-09-11T19:50:18.246Z,19.4
2022-09-11T19:52:15.838Z,19.2
2022-09-11T19:54:13.430Z,19.3
2022-09-11T19:56:11.028Z,19.2
2022-09-11T19:58:08.622Z,19.2
2022-09-11T20:02:11.834Z,18.9
2022-09-11T20:04:09.382Z,18.9
2022-09-11T20:06:06.978Z,18.9
2022-09-11T20:08:04.581Z,18.8
2022-09-11T20:14:05.404Z,18.8
2022-09-11T20:16:03.030Z,18.8
2022-09-11T20:19:58.222Z,18.9
2022-09-11T20:21:55.827Z,18.9
2022-09-11T20:23:53.446Z,19
2022-09-11T20:25:51.059Z,18.8
2022-09-11T20:27:56.630Z,18.8
2022-09-11T20:29:54.248Z,18.9
2022-09-11T20:31:51.906Z,18.7
2022-09-11T20:34:15.253Z,18.6
2022-09-11T20:36:12.929Z,18.6
2022-09-11T20:38:10.583Z,18.7
2022-09-11T20:40:16.171Z,18.6
2022-09-11T20:42:13.749Z,18.6
2022-09-11T20:44:11.369Z,18.5
2022-09-11T20:48:06.627Z,18.4
2022-09-11T20:52:01.916Z,18.4
2022-09-11T20:54:07.372Z,18.4
2022-09-11T20:56:05.026Z,18.3
2022-09-11T20:58:02.624Z,18.4
2022-09-11T21:00:00.689Z,18.3
2022-09-11T21:01:57.914Z,18.4
2022-09-11T21:03:55.482Z,18.2
2022-09-11T21:05:53.094Z,18.4
2022-09-11T21:09:56.293Z,18.2
2022-09-11T21:11:53.941Z,18.2
2022-09-11T21:13:51.552Z,18.2
2022-09-11T21:15:49.194Z,18.1
2022-09-11T21:17:46.801Z,18.2
2022-09-11T21:19:44.446Z,18.1
2022-09-11T21:21:50.017Z,18.1
2022-09-11T21:23:47.628Z,17.9
2022-09-11T21:25:47.673Z,18
2022-09-11T21:28:45.645Z,17.8
2022-09-11T21:30:43.290Z,17.8
2022-09-11T21:34:46.480Z,17.7
2022-09-11T21:36:44.075Z,17.8
2022-09-11T21:38:41.712Z,17.7
2022-09-11T21:42:36.952Z,17.7
2022-09-11T21:44:34.572Z,17.8
2022-09-11T21:46:32.376Z,17.8
2022-09-11T21:48:37.761Z,17.7
2022-09-11T21:50:35.355Z,17.6
2022-09-11T21:52:32.989Z,17.6
2022-09-11T21:56:28.252Z,17.5
2022-09-11T21:58:25.875Z,17.6
2022-09-11T22:00:23.511Z,17.4
2022-09-11T22:04:26.691Z,17.5
2022-09-11T22:06:24.292Z,17.6
2022-09-11T22:08:21.925Z,17.6
2022-09-11T22:10:19.545Z,17.5
2022-09-11T22:12:17.153Z,17.5
2022-09-11T22:18:17.952Z,17.4
2022-09-11T22:20:15.592Z,17.4
2022-09-11T22:23:16.007Z,17.4
2022-09-11T22:25:13.649Z,17.5
2022-09-11T22:27:11.299Z,17.4
2022-09-11T22:29:16.864Z,17.4
2022-09-11T22:31:14.575Z,17.4
2022-09-11T22:33:12.099Z,17.4
2022-09-11T22:39:04.994Z,17.3
2022-09-11T22:41:02.607Z,17
2022-09-11T22:45:05.858Z,16.9
2022-09-11T22:50:58.760Z,16.9
2022-09-11T22:52:56.366Z,16.9
2022-09-11T22:54:54.033Z,16.9
2022-09-11T22:56:59.596Z,17
2022-09-11T22:58:57.221Z,16.9
2022-09-11T23:00:55.018Z,16.8
2022-09-11T23:02:52.507Z,16.8
2022-09-11T23:04:50.180Z,16.9
2022-09-11T23:06:47.788Z,16.8
2022-09-11T23:08:45.588Z,17
2022-09-11T23:10:51.015Z,16.8
2022-09-11T23:12:48.654Z,16.8
2022-09-11T23:14:46.273Z,16.8
2022-09-11T23:15:49.091Z,16.8
2022-09-11T23:17:46.716Z,16.9
2022-09-11T23:21:42.005Z,16.8
2022-09-11T23:23:49.807Z,16.7
2022-09-11T23:25:45.216Z,16.9
2022-09-11T23:27:42.872Z,16.7
2022-09-11T23:29:40.534Z,16.7
2022-09-11T23:31:38.193Z,16.7
2022-09-11T23:33:35.786Z,16.7
2022-09-11T23:35:33.421Z,16.6
2022-09-11T23:37:43.536Z,16.4
2022-09-11T23:39:36.660Z,16.4
2022-09-11T23:41:34.294Z,16.4
2022-09-11T23:43:31.933Z,16.4
2022-09-11T23:45:29.651Z,16.4
2022-09-11T23:47:27.215Z,16.4
2022-09-11T23:49:24.846Z,16.4
2022-09-11T23:51:30.446Z,16.4
2022-09-11T23:53:28.044Z,16.6
2022-09-11T23:55:27.250Z,16.5
2022-09-11T23:57:24.836Z,16.5
2022-09-11T23:59:22.479Z,16.4
